createdAt,value
2023-02-11T00:03:27.560Z,8.00
2023-02-11T00:08:30.161Z,7.70
2023-02-11T00:13:34.620Z,7.71
2023-02-11T00:18:37.241Z,8.01
2023-02-11T00:23:40.000Z,8.02
2023-02-11T00:28:44.302Z,8.23
2023-02-11T00:33:47.357Z,8.22
2023-02-11T00:38:51.072Z,8.21
2023-02-11T00:43:55.058Z,7.93
2023-02-11T00:48:57.929Z,7.71
2023-02-11T00:54:00.633Z,7.69
2023-02-11T00:59:04.602Z,8.09
2023-02-11T01:04:07.172Z,7.97
2023-02-11T01:09:09.763Z,7.96
2023-02-11T01:14:13.786Z,8.09
2023-02-11T01:19:16.348Z,7.65
2023-02-11T01:24:21.726Z,8.11
2023-02-11T01:29:25.654Z,8.17
2023-02-11T01:34:30.398Z,8.29
2023-02-11T01:39:33.977Z,7.61
2023-02-11T01:44:39.992Z,7.61
2023-02-11T01:49:48.739Z,7.54
2023-02-11T01:55:14.326Z,7.70
2023-02-11T02:05:55.454Z,7.44
2023-02-11T02:11:00.722Z,7.60
2023-02-11T02:16:08.600Z,7.49
2023-02-11T02:21:38.732Z,7.44
2023-02-11T02:27:00.343Z,6.86
2023-02-11T02:32:34.468Z,7.57
2023-02-11T02:37:43.022Z,7.48
2023-02-11T02:42:46.201Z,7.52
2023-02-11T02:47:50.371Z,7.29
2023-02-11T02:53:01.057Z,7.53
2023-02-11T02:58:25.395Z,7.53
2023-02-11T03:03:36.869Z,7.36
2023-02-11T03:08:44.701Z,7.11
2023-02-11T03:13:50.414Z,7.26
2023-02-11T03:18:58.614Z,7.19
2023-02-11T03:24:06.736Z,7.14
2023-02-11T03:29:15.443Z,6.81
2023-02-11T03:34:28.460Z,7.20
2023-02-11T03:39:37.457Z,7.16
2023-02-11T03:44:45.205Z,7.32
2023-02-11T03:49:52.214Z,7.53
2023-02-11T03:54:58.945Z,7.73
2023-02-11T04:00:02.106Z,7.31
2023-02-11T04:05:17.050Z,6.79
2023-02-11T04:10:19.821Z,7.18
2023-02-11T04:15:22.675Z,7.29
2023-02-11T04:20:26.575Z,7.45
2023-02-11T04:25:29.122Z,7.54
2023-02-11T04:30:31.775Z,7.11
2023-02-11T04:35:35.814Z,7.56
2023-02-11T04:40:38.605Z,7.74
2023-02-11T04:45:41.343Z,7.84
2023-02-11T04:50:45.228Z,7.88
2023-02-11T04:55:50.561Z,7.66
2023-02-11T05:00:53.458Z,7.66
2023-02-11T05:05:57.339Z,7.30
2023-02-11T05:11:01.998Z,7.49
2023-02-11T05:16:04.993Z,7.62
2023-02-11T05:21:10.448Z,7.42
2023-02-11T05:26:13.912Z,7.33
2023-02-11T05:31:16.769Z,7.14
2023-02-11T05:36:20.862Z,7.17
2023-02-11T05:41:23.476Z,7.26
2023-02-11T05:46:26.163Z,7.19
2023-02-11T05:51:30.158Z,7.11
2023-02-11T05:56:33.156Z,6.92
2023-02-11T06:01:35.799Z,6.74
2023-02-11T06:06:39.974Z,7.17
2023-02-11T06:11:42.693Z,7.24
2023-02-11T06:16:45.385Z,7.36
2023-02-11T06:21:49.420Z,7.43
2023-02-11T06:26:52.124Z,7.14
2023-02-11T06:31:54.819Z,7.16
2023-02-11T06:36:58.788Z,7.09
2023-02-11T06:42:01.355Z,7.11
2023-02-11T06:47:04.019Z,7.23
2023-02-11T06:52:07.913Z,7.36
2023-02-11T06:57:10.457Z,7.49
2023-02-11T07:02:13.096Z,7.55
2023-02-11T07:07:17.033Z,7.52
2023-02-11T07:12:19.578Z,7.20
2023-02-11T07:17:22.117Z,7.61
2023-02-11T07:22:26.445Z,7.47
2023-02-11T07:27:29.017Z,7.32
2023-02-11T07:32:31.561Z,7.49
2023-02-11T07:37:36.593Z,7.29
2023-02-11T07:42:40.340Z,7.30
2023-02-11T07:47:43.366Z,7.52
2023-02-11T07:52:47.391Z,7.26
2023-02-11T07:57:50.721Z,7.34
2023-02-11T08:02:53.275Z,7.35
2023-02-11T08:07:57.179Z,7.64
2023-02-11T08:12:59.740Z,7.65
2023-02-11T08:18:02.272Z,7.90
2023-02-11T08:23:08.097Z,7.73
2023-02-11T08:28:10.697Z,7.91
2023-02-11T08:33:13.250Z,7.99
2023-02-11T08:38:17.529Z,8.15
2023-02-11T08:43:20.172Z,8.01
2023-02-11T08:48:23.327Z,8.13
2023-02-11T08:53:28.010Z,8.21
2023-02-11T08:58:30.849Z,8.14
2023-02-11T09:03:33.419Z,8.06
2023-02-11T09:08:38.333Z,8.11
2023-02-11T09:13:42.665Z,8.15
2023-02-11T09:18:45.751Z,8.03
2023-02-11T09:23:49.802Z,8.13
2023-02-11T09:28:52.798Z,8.16
2023-02-11T09:33:57.402Z,8.36
2023-02-11T09:39:02.957Z,8.34
2023-02-11T09:44:08.948Z,8.68
2023-02-11T09:49:20.880Z,8.15
2023-02-11T09:54:31.100Z,8.47
2023-02-11T09:59:34.722Z,8.36
2023-02-11T10:04:58.320Z,7.98
2023-02-11T10:10:15.151Z,8.43
2023-02-11T10:15:28.398Z,8.58
2023-02-11T10:20:35.821Z,8.22
2023-02-11T10:25:45.431Z,8.32
2023-02-11T10:30:56.813Z,8.54
2023-02-11T10:35:59.816Z,8.81
2023-02-11T10:41:03.784Z,8.76
2023-02-11T10:46:06.899Z,8.82
2023-02-11T10:51:17.595Z,8.76
2023-02-11T10:56:28.910Z,8.99
2023-02-11T11:01:42.811Z,8.77
2023-02-11T11:06:45.456Z,9.06
2023-02-11T11:11:54.126Z,9.09
2023-02-11T11:16:56.729Z,9.22
2023-02-11T11:22:00.223Z,9.08
2023-02-11T11:27:06.042Z,9.24
2023-02-11T11:32:18.282Z,9.26
2023-02-11T11:37:25.500Z,9.34
2023-02-11T11:42:32.086Z,9.25
2023-02-11T11:47:42.206Z,9.28
2023-02-11T11:52:51.056Z,9.60
2023-02-11T11:57:55.016Z,9.71
2023-02-11T12:03:18.445Z,9.65
2023-02-11T12:08:31.758Z,9.76
2023-02-11T12:13:53.678Z,9.81
2023-02-11T12:19:28.006Z,9.87
2023-02-11T12:24:42.132Z,9.86
2023-02-11T12:29:59.890Z,9.89
2023-02-11T12:35:22.105Z,9.83
2023-02-11T12:40:32.045Z,9.77
2023-02-11T12:46:01.847Z,9.94
2023-02-11T12:51:15.279Z,9.88
2023-02-11T12:56:24.157Z,9.98
2023-02-11T13:01:33.073Z,9.94
2023-02-11T13:06:40.974Z,10.03
2023-02-11T13:11:51.845Z,10.01
2023-02-11T13:16:57.895Z,10.16
2023-02-11T13:22:08.296Z,9.97
2023-02-11T13:27:30.655Z,10.06
2023-02-11T13:39:23.294Z,9.99
2023-02-11T13:44:28.952Z,9.99
2023-02-11T13:49:40.386Z,10.11
2023-02-11T13:54:50.457Z,10.16
2023-02-11T13:59:54.046Z,10.35
2023-02-11T14:05:31.670Z,10.40
2023-02-11T14:10:53.374Z,10.64
2023-02-11T14:16:08.042Z,10.61
2023-02-11T14:21:14.048Z,10.93
2023-02-11T14:26:32.294Z,11.18
2023-02-11T14:31:42.462Z,11.18
2023-02-11T14:36:58.042Z,11.23
2023-02-11T14:42:04.571Z,11.15
2023-02-11T14:47:09.862Z,10.61
2023-02-11T14:52:23.896Z,10.80
2023-02-11T14:57:29.620Z,10.93
2023-02-11T15:02:36.232Z,10.79
2023-02-11T15:07:44.000Z,10.65
2023-02-11T15:12:51.374Z,10.62
2023-02-11T15:17:57.185Z,10.47
2023-02-11T15:23:03.635Z,10.35
2023-02-11T15:28:16.771Z,10.46
2023-02-11T15:33:25.457Z,10.49
2023-02-11T15:38:29.934Z,10.36
2023-02-11T15:43:45.206Z,10.20
2023-02-11T15:48:51.054Z,10.36
2023-02-11T15:53:58.575Z,10.51
2023-02-11T15:59:13.942Z,10.53
2023-02-11T16:04:20.298Z,10.56
2023-02-11T16:09:43.310Z,10.22
2023-02-11T16:14:48.053Z,10.30
2023-02-11T16:19:54.854Z,10.45
2023-02-11T16:25:00.199Z,10.33
2023-02-11T16:30:05.649Z,10.39
2023-02-11T16:35:12.833Z,9.96
2023-02-11T16:40:16.606Z,10.06
2023-02-11T16:45:21.453Z,10.15
2023-02-11T16:50:26.647Z,10.10
2023-02-11T16:55:29.951Z,10.15
2023-02-11T17:00:34.895Z,10.15
2023-02-11T17:05:54.406Z,10.10
2023-02-11T17:10:58.252Z,10.04
2023-02-11T17:16:03.368Z,10.12
2023-02-11T17:21:07.774Z,9.87
2023-02-11T17:26:10.916Z,10.11
2023-02-11T17:31:16.966Z,9.89
2023-02-11T17:36:20.542Z,9.73
2023-02-11T17:41:23.674Z,9.82
2023-02-11T17:46:29.566Z,9.59
2023-02-11T17:51:34.427Z,9.58
2023-02-11T17:56:38.299Z,9.61
2023-02-11T18:01:44.513Z,9.69
2023-02-11T18:06:48.097Z,9.46
2023-02-11T18:11:52.681Z,9.96
2023-02-11T18:16:57.261Z,10.02
2023-02-11T18:22:01.140Z,9.84
2023-02-11T18:27:04.729Z,9.88
2023-02-11T18:32:09.399Z,10.03
2023-02-11T18:37:14.041Z,10.03
2023-02-11T18:42:17.212Z,9.80
2023-02-11T18:47:22.206Z,9.27
2023-02-11T18:52:25.328Z,9.58
2023-02-11T18:57:28.437Z,9.50
2023-02-11T19:02:33.033Z,9.32
2023-02-11T19:07:36.493Z,9.36
2023-02-11T19:12:40.083Z,8.97
2023-02-11T19:17:44.198Z,9.01
2023-02-11T19:22:46.839Z,9.32
2023-02-11T19:27:49.377Z,9.35
2023-02-11T19:32:56.900Z,9.44
2023-02-11T19:37:59.452Z,9.32
2023-02-11T19:43:01.987Z,9.28
2023-02-11T19:48:06.154Z,9.42
2023-02-11T19:53:08.789Z,9.54
2023-02-11T19:58:11.354Z,9.30
2023-02-11T20:03:15.301Z,9.44
2023-02-11T20:08:18.492Z,9.41
2023-02-11T20:13:21.465Z,9.46
2023-02-11T20:18:25.368Z,9.63
2023-02-11T20:23:29.211Z,9.67
2023-02-11T20:28:31.951Z,9.37
2023-02-11T20:33:35.845Z,9.57
2023-02-11T20:38:39.038Z,9.67
2023-02-11T20:43:41.875Z,9.65
2023-02-11T20:48:45.856Z,9.61
2023-02-11T20:53:50.987Z,9.64
2023-02-11T20:58:54.288Z,9.54
2023-02-11T21:03:59.388Z,9.71
2023-02-11T21:09:02.027Z,9.72
2023-02-11T21:14:05.406Z,9.65
2023-02-11T21:19:09.322Z,9.57
2023-02-11T21:24:12.809Z,9.59
2023-02-11T21:29:15.387Z,9.53
2023-02-11T21:34:20.022Z,9.60
2023-02-11T21:39:22.583Z,9.68
2023-02-11T21:44:25.228Z,9.67
2023-02-11T21:49:29.860Z,9.69
2023-02-11T21:54:33.154Z,9.63
2023-02-11T21:59:35.701Z,9.64
2023-02-11T22:04:39.610Z,9.67
2023-02-11T22:09:42.329Z,9.82
2023-02-11T22:14:46.214Z,9.82
2023-02-11T22:19:50.413Z,9.64
2023-02-11T22:24:53.931Z,9.76
2023-02-11T22:29:56.880Z,9.79
2023-02-11T22:35:00.897Z,9.81
2023-02-11T22:40:03.435Z,9.64
2023-02-11T22:45:07.308Z,9.67
2023-02-11T22:50:11.971Z,9.76
2023-02-11T22:55:14.849Z,9.72
2023-02-11T23:00:18.864Z,9.73
2023-02-11T23:05:23.020Z,9.70
2023-02-11T23:10:25.607Z,9.69
2023-02-11T23:15:28.173Z,9.74
2023-02-11T23:20:32.064Z,9.69
2023-02-11T23:25:35.075Z,9.51
2023-02-11T23:30:37.707Z,9.60
2023-02-11T23:35:41.663Z,9.64
2023-02-11T23:40:44.621Z,9.70
2023-02-11T23:45:48.741Z,9.71
2023-02-11T23:50:52.728Z,9.62
2023-02-11T23:55:55.642Z,9.63
